Terminal Aerodrome Forecast
Issued by NWS Chicago, IL

Home | Current Version | Previous Version | Text Only | Print | Product List | Glossary Off
Versions: 1 2 3 4 5 6 7 8 9 10 11 12 13 14 15 16 17 18 19 20 21 22 23 24 25 26 27 28

000
FTUS43 KLOT 231500 CCA
TAFRFD
TAF COR
KRFD 231500Z 2315/2412 27012G20KT 5SM BR OVC008
     FM231800 28011KT P6SM OVC012
     FM232000 28012G20KT P6SM SCT015 OVC025
     FM240000 30006KT P6SM SCT045
     FM240500 35005KT P6SM SCT150
     FM240900 04007KT P6SM BKN200=

USA.gov is the U.S. government's official web portal to all federal, state and local government web resources and services.